sensor_id;sensor_type;location;lat;lon;timestamp;P1;durP1;ratioP1;P2;durP2;ratioP2
7901;SDS011;3996;49.674;10.716;2024-01-07T00:01:03;9.20;;;6.63;;
7901;SDS011;3996;49.674;10.716;2024-01-07T00:03:28;7.20;;;6.07;;
7901;SDS011;3996;49.674;10.716;2024-01-07T00:05:54;11.07;;;7.27;;
7901;SDS011;3996;49.674;10.716;2024-01-07T00:08:20;8.80;;;6.70;;
7901;SDS011;3996;49.674;10.716;2024-01-07T00:10:46;9.63;;;6.80;;
7901;SDS011;3996;49.674;10.716;2024-01-07T00:13:11;9.83;;;7.10;;
7901;SDS011;3996;49.674;10.716;2024-01-07T00:15:37;8.83;;;6.77;;
7901;SDS011;3996;49.674;10.716;2024-01-07T00:18:02;8.60;;;6.90;;
7901;SDS011;3996;49.674;10.716;2024-01-07T00:20:28;10.50;;;7.30;;
7901;SDS011;3996;49.674;10.716;2024-01-07T00:22:54;10.63;;;7.43;;
7901;SDS011;3996;49.674;10.716;2024-01-07T00:25:21;10.00;;;7.07;;
7901;SDS011;3996;49.674;10.716;2024-01-07T00:27:46;10.37;;;7.57;;
7901;SDS011;3996;49.674;10.716;2024-01-07T00:30:12;9.60;;;7.20;;
7901;SDS011;3996;49.674;10.716;2024-01-07T00:32:38;9.70;;;7.10;;
7901;SDS011;3996;49.674;10.716;2024-01-07T00:35:03;10.13;;;7.67;;
7901;SDS011;3996;49.674;10.716;2024-01-07T00:37:29;11.37;;;7.00;;
7901;SDS011;3996;49.674;10.716;2024-01-07T00:39:55;11.17;;;7.33;;
7901;SDS011;3996;49.674;10.716;2024-01-07T00:42:20;9.17;;;7.33;;
7901;SDS011;3996;49.674;10.716;2024-01-07T00:44:46;10.90;;;8.10;;
7901;SDS011;3996;49.674;10.716;2024-01-07T00:47:11;12.07;;;7.80;;
7901;SDS011;3996;49.674;10.716;2024-01-07T00:49:37;11.20;;;7.63;;
7901;SDS011;3996;49.674;10.716;2024-01-07T00:52:04;11.00;;;8.03;;
7901;SDS011;3996;49.674;10.716;2024-01-07T00:54:30;11.43;;;8.03;;
7901;SDS011;3996;49.674;10.716;2024-01-07T00:56:56;13.13;;;7.73;;
7901;SDS011;3996;49.674;10.716;2024-01-07T00:59:21;11.07;;;8.23;;
7901;SDS011;3996;49.674;10.716;2024-01-07T01:01:47;11.20;;;8.10;;
7901;SDS011;3996;49.674;10.716;2024-01-07T01:04:12;12.57;;;8.03;;
7901;SDS011;3996;49.674;10.716;2024-01-07T01:06:38;13.47;;;8.13;;
7901;SDS011;3996;49.674;10.716;2024-01-07T01:09:03;12.03;;;8.53;;
7901;SDS011;3996;49.674;10.716;2024-01-07T01:11:29;11.47;;;8.50;;
7901;SDS011;3996;49.674;10.716;2024-01-07T01:13:54;13.87;;;8.13;;
7901;SDS011;3996;49.674;10.716;2024-01-07T01:16:20;13.17;;;8.57;;
7901;SDS011;3996;49.674;10.716;2024-01-07T01:18:45;11.53;;;8.30;;
7901;SDS011;3996;49.674;10.716;2024-01-07T01:21:11;13.33;;;8.63;;
7901;SDS011;3996;49.674;10.716;2024-01-07T01:23:37;11.50;;;8.53;;
7901;SDS011;3996;49.674;10.716;2024-01-07T01:26:03;13.63;;;9.30;;
7901;SDS011;3996;49.674;10.716;2024-01-07T01:28:28;10.57;;;7.87;;
7901;SDS011;3996;49.674;10.716;2024-01-07T01:30:54;12.37;;;8.40;;
7901;SDS011;3996;49.674;10.716;2024-01-07T01:33:19;11.43;;;8.13;;
7901;SDS011;3996;49.674;10.716;2024-01-07T01:35:45;12.57;;;8.73;;
7901;SDS011;3996;49.674;10.716;2024-01-07T01:38:11;10.37;;;7.60;;
7901;SDS011;3996;49.674;10.716;2024-01-07T01:40:36;12.70;;;8.37;;
7901;SDS011;3996;49.674;10.716;2024-01-07T01:43:02;12.90;;;8.60;;
7901;SDS011;3996;49.674;10.716;2024-01-07T01:45:27;11.07;;;8.27;;
7901;SDS011;3996;49.674;10.716;2024-01-07T01:47:53;12.27;;;8.20;;
7901;SDS011;3996;49.674;10.716;2024-01-07T01:50:19;13.30;;;8.63;;
7901;SDS011;3996;49.674;10.716;2024-01-07T01:52:45;13.07;;;8.20;;
7901;SDS011;3996;49.674;10.716;2024-01-07T01:55:11;11.33;;;8.27;;
7901;SDS011;3996;49.674;10.716;2024-01-07T01:57:38;12.83;;;8.43;;
7901;SDS011;3996;49.674;10.716;2024-01-07T02:00:05;12.83;;;8.47;;
7901;SDS011;3996;49.674;10.716;2024-01-07T02:02:32;10.57;;;7.70;;
7901;SDS011;3996;49.674;10.716;2024-01-07T02:05:00;11.87;;;7.93;;
7901;SDS011;3996;49.674;10.716;2024-01-07T02:07:26;11.93;;;8.00;;
7901;SDS011;3996;49.674;10.716;2024-01-07T02:09:53;9.87;;;7.37;;
7901;SDS011;3996;49.674;10.716;2024-01-07T02:12:18;10.90;;;7.10;;
7901;SDS011;3996;49.674;10.716;2024-01-07T02:14:44;10.67;;;7.87;;
7901;SDS011;3996;49.674;10.716;2024-01-07T02:17:10;10.87;;;7.27;;
7901;SDS011;3996;49.674;10.716;2024-01-07T02:19:35;11.23;;;7.97;;
7901;SDS011;3996;49.674;10.716;2024-01-07T02:22:01;11.90;;;8.07;;
7901;SDS011;3996;49.674;10.716;2024-01-07T02:24:26;11.90;;;8.03;;
7901;SDS011;3996;49.674;10.716;2024-01-07T02:26:52;13.83;;;8.00;;
7901;SDS011;3996;49.674;10.716;2024-01-07T02:29:18;10.63;;;8.07;;
7901;SDS011;3996;49.674;10.716;2024-01-07T02:31:43;11.57;;;8.07;;
7901;SDS011;3996;49.674;10.716;2024-01-07T02:34:09;11.63;;;7.77;;
7901;SDS011;3996;49.674;10.716;2024-01-07T02:36:35;13.70;;;7.70;;
7901;SDS011;3996;49.674;10.716;2024-01-07T02:39:01;8.63;;;6.60;;
7901;SDS011;3996;49.674;10.716;2024-01-07T02:41:27;7.27;;;5.57;;
7901;SDS011;3996;49.674;10.716;2024-01-07T02:43:52;7.67;;;5.57;;
7901;SDS011;3996;49.674;10.716;2024-01-07T02:46:19;6.47;;;4.63;;
7901;SDS011;3996;49.674;10.716;2024-01-07T02:48:45;6.70;;;4.70;;
7901;SDS011;3996;49.674;10.716;2024-01-07T02:51:10;6.83;;;4.47;;
7901;SDS011;3996;49.674;10.716;2024-01-07T02:53:36;7.43;;;4.60;;
7901;SDS011;3996;49.674;10.716;2024-01-07T02:56:01;6.87;;;4.40;;
7901;SDS011;3996;49.674;10.716;2024-01-07T02:58:27;6.47;;;4.80;;
7901;SDS011;3996;49.674;10.716;2024-01-07T03:00:53;6.13;;;4.80;;
7901;SDS011;3996;49.674;10.716;2024-01-07T03:03:18;6.27;;;4.77;;
7901;SDS011;3996;49.674;10.716;2024-01-07T03:05:44;7.80;;;4.53;;
7901;SDS011;3996;49.674;10.716;2024-01-07T03:08:09;5.63;;;3.87;;
7901;SDS011;3996;49.674;10.716;2024-01-07T03:10:35;6.07;;;4.50;;
7901;SDS011;3996;49.674;10.716;2024-01-07T03:13:00;6.20;;;4.63;;
7901;SDS011;3996;49.674;10.716;2024-01-07T03:15:27;6.80;;;4.33;;
7901;SDS011;3996;49.674;10.716;2024-01-07T03:17:53;6.27;;;4.50;;
7901;SDS011;3996;49.674;10.716;2024-01-07T03:20:19;6.80;;;4.67;;
7901;SDS011;3996;49.674;10.716;2024-01-07T03:22:44;6.13;;;5.10;;
7901;SDS011;3996;49.674;10.716;2024-01-07T03:25:10;6.90;;;5.47;;
7901;SDS011;3996;49.674;10.716;2024-01-07T03:27:35;8.67;;;5.87;;
7901;SDS011;3996;49.674;10.716;2024-01-07T03:30:01;7.20;;;5.67;;
7901;SDS011;3996;49.674;10.716;2024-01-07T03:32:27;7.70;;;5.67;;
7901;SDS011;3996;49.674;10.716;2024-01-07T03:34:53;8.40;;;5.23;;
7901;SDS011;3996;49.674;10.716;2024-01-07T03:37:18;9.23;;;5.80;;
7901;SDS011;3996;49.674;10.716;2024-01-07T03:39:45;8.27;;;5.23;;
7901;SDS011;3996;49.674;10.716;2024-01-07T03:42:12;7.30;;;4.90;;
7901;SDS011;3996;49.674;10.716;2024-01-07T03:44:38;7.13;;;5.07;;
7901;SDS011;3996;49.674;10.716;2024-01-07T03:47:04;6.93;;;4.93;;
7901;SDS011;3996;49.674;10.716;2024-01-07T03:49:30;7.90;;;5.47;;
7901;SDS011;3996;49.674;10.716;2024-01-07T03:51:56;7.80;;;5.20;;
7901;SDS011;3996;49.674;10.716;2024-01-07T03:54:22;7.10;;;4.97;;
7901;SDS011;3996;49.674;10.716;2024-01-07T03:56:47;7.13;;;4.90;;
7901;SDS011;3996;49.674;10.716;2024-01-07T03:59:13;7.43;;;5.17;;
7901;SDS011;3996;49.674;10.716;2024-01-07T04:01:38;7.40;;;5.00;;
7901;SDS011;3996;49.674;10.716;2024-01-07T04:04:04;6.53;;;4.43;;
7901;SDS011;3996;49.674;10.716;2024-01-07T04:06:30;7.20;;;4.93;;
7901;SDS011;3996;49.674;10.716;2024-01-07T04:08:55;8.43;;;5.40;;
7901;SDS011;3996;49.674;10.716;2024-01-07T04:11:21;7.20;;;5.17;;
7901;SDS011;3996;49.674;10.716;2024-01-07T04:13:46;7.10;;;4.87;;
7901;SDS011;3996;49.674;10.716;2024-01-07T04:16:18;7.57;;;5.63;;
7901;SDS011;3996;49.674;10.716;2024-01-07T04:18:45;9.73;;;5.47;;
7901;SDS011;3996;49.674;10.716;2024-01-07T04:21:11;7.37;;;5.83;;
7901;SDS011;3996;49.674;10.716;2024-01-07T04:23:38;7.07;;;5.40;;
7901;SDS011;3996;49.674;10.716;2024-01-07T04:26:05;7.43;;;5.27;;
7901;SDS011;3996;49.674;10.716;2024-01-07T04:28:31;8.13;;;5.50;;
7901;SDS011;3996;49.674;10.716;2024-01-07T04:30:57;9.03;;;5.77;;
7901;SDS011;3996;49.674;10.716;2024-01-07T04:33:22;8.07;;;5.00;;
7901;SDS011;3996;49.674;10.716;2024-01-07T04:35:48;6.80;;;4.80;;
7901;SDS011;3996;49.674;10.716;2024-01-07T04:38:14;6.53;;;5.07;;
7901;SDS011;3996;49.674;10.716;2024-01-07T04:40:39;9.00;;;5.23;;
7901;SDS011;3996;49.674;10.716;2024-01-07T04:43:05;7.60;;;5.33;;
7901;SDS011;3996;49.674;10.716;2024-01-07T04:45:30;8.20;;;5.40;;
7901;SDS011;3996;49.674;10.716;2024-01-07T04:47:56;8.57;;;5.90;;
7901;SDS011;3996;49.674;10.716;2024-01-07T04:50:21;8.70;;;6.00;;
7901;SDS011;3996;49.674;10.716;2024-01-07T04:52:48;7.93;;;5.50;;
7901;SDS011;3996;49.674;10.716;2024-01-07T04:55:13;7.20;;;5.10;;
7901;SDS011;3996;49.674;10.716;2024-01-07T04:57:39;7.17;;;5.13;;
7901;SDS011;3996;49.674;10.716;2024-01-07T05:00:05;8.13;;;5.57;;
7901;SDS011;3996;49.674;10.716;2024-01-07T05:02:31;7.63;;;5.63;;
7901;SDS011;3996;49.674;10.716;2024-01-07T05:04:56;8.90;;;5.67;;
7901;SDS011;3996;49.674;10.716;2024-01-07T05:07:22;8.43;;;6.03;;
7901;SDS011;3996;49.674;10.716;2024-01-07T05:09:48;7.87;;;5.53;;
7901;SDS011;3996;49.674;10.716;2024-01-07T05:12:13;8.03;;;5.97;;
7901;SDS011;3996;49.674;10.716;2024-01-07T05:14:39;7.97;;;5.20;;
7901;SDS011;3996;49.674;10.716;2024-01-07T05:17:07;7.30;;;4.50;;
7901;SDS011;3996;49.674;10.716;2024-01-07T05:19:34;6.40;;;4.83;;
7901;SDS011;3996;49.674;10.716;2024-01-07T05:22:00;7.10;;;4.80;;
7901;SDS011;3996;49.674;10.716;2024-01-07T05:24:26;6.90;;;4.43;;
7901;SDS011;3996;49.674;10.716;2024-01-07T05:26:51;8.07;;;4.57;;
7901;SDS011;3996;49.674;10.716;2024-01-07T05:29:17;7.57;;;4.63;;
7901;SDS011;3996;49.674;10.716;2024-01-07T05:31:42;7.80;;;4.87;;
7901;SDS011;3996;49.674;10.716;2024-01-07T05:34:08;8.27;;;5.07;;
7901;SDS011;3996;49.674;10.716;2024-01-07T05:36:34;6.93;;;5.27;;
7901;SDS011;3996;49.674;10.716;2024-01-07T05:38:59;7.40;;;5.07;;
7901;SDS011;3996;49.674;10.716;2024-01-07T05:41:25;6.60;;;5.03;;
7901;SDS011;3996;49.674;10.716;2024-01-07T05:43:51;7.30;;;4.80;;
7901;SDS011;3996;49.674;10.716;2024-01-07T05:46:16;7.07;;;4.60;;
7901;SDS011;3996;49.674;10.716;2024-01-07T05:48:42;7.47;;;4.73;;
7901;SDS011;3996;49.674;10.716;2024-01-07T05:51:09;8.07;;;4.93;;
7901;SDS011;3996;49.674;10.716;2024-01-07T05:53:35;6.40;;;4.40;;
7901;SDS011;3996;49.674;10.716;2024-01-07T05:56:00;7.60;;;4.90;;
7901;SDS011;3996;49.674;10.716;2024-01-07T05:58:26;6.53;;;4.70;;
7901;SDS011;3996;49.674;10.716;2024-01-07T06:00:51;6.53;;;4.57;;
7901;SDS011;3996;49.674;10.716;2024-01-07T06:03:17;6.53;;;4.77;;
7901;SDS011;3996;49.674;10.716;2024-01-07T06:05:43;6.33;;;4.67;;
7901;SDS011;3996;49.674;10.716;2024-01-07T06:08:08;6.17;;;4.40;;
7901;SDS011;3996;49.674;10.716;2024-01-07T06:10:35;6.93;;;4.70;;
7901;SDS011;3996;49.674;10.716;2024-01-07T06:13:00;6.40;;;4.97;;
7901;SDS011;3996;49.674;10.716;2024-01-07T06:15:28;8.10;;;4.90;;
7901;SDS011;3996;49.674;10.716;2024-01-07T06:17:53;8.10;;;5.20;;
7901;SDS011;3996;49.674;10.716;2024-01-07T06:20:19;6.77;;;4.80;;
7901;SDS011;3996;49.674;10.716;2024-01-07T06:22:45;8.00;;;5.40;;
7901;SDS011;3996;49.674;10.716;2024-01-07T06:25:10;6.07;;;5.00;;
7901;SDS011;3996;49.674;10.716;2024-01-07T06:27:36;6.30;;;4.63;;
7901;SDS011;3996;49.674;10.716;2024-01-07T06:30:03;7.70;;;5.23;;
7901;SDS011;3996;49.674;10.716;2024-01-07T06:32:29;6.57;;;4.97;;
7901;SDS011;3996;49.674;10.716;2024-01-07T06:34:57;8.03;;;4.93;;
7901;SDS011;3996;49.674;10.716;2024-01-07T06:37:23;6.80;;;5.37;;
7901;SDS011;3996;49.674;10.716;2024-01-07T06:39:48;9.03;;;5.43;;
7901;SDS011;3996;49.674;10.716;2024-01-07T06:42:14;7.70;;;5.40;;
7901;SDS011;3996;49.674;10.716;2024-01-07T06:44:40;6.97;;;5.17;;
7901;SDS011;3996;49.674;10.716;2024-01-07T06:47:05;7.23;;;5.70;;
7901;SDS011;3996;49.674;10.716;2024-01-07T06:49:31;7.73;;;5.67;;
7901;SDS011;3996;49.674;10.716;2024-01-07T06:51:56;7.23;;;5.23;;
7901;SDS011;3996;49.674;10.716;2024-01-07T06:54:22;7.80;;;5.63;;
7901;SDS011;3996;49.674;10.716;2024-01-07T06:56:48;7.10;;;5.43;;
7901;SDS011;3996;49.674;10.716;2024-01-07T06:59:13;8.47;;;5.77;;
7901;SDS011;3996;49.674;10.716;2024-01-07T07:01:39;8.47;;;5.50;;
7901;SDS011;3996;49.674;10.716;2024-01-07T07:04:05;7.67;;;5.53;;
7901;SDS011;3996;49.674;10.716;2024-01-07T07:06:30;8.80;;;5.90;;
7901;SDS011;3996;49.674;10.716;2024-01-07T07:08:56;8.33;;;6.03;;
7901;SDS011;3996;49.674;10.716;2024-01-07T07:11:22;9.00;;;5.87;;
7901;SDS011;3996;49.674;10.716;2024-01-07T07:13:47;9.00;;;6.17;;
7901;SDS011;3996;49.674;10.716;2024-01-07T07:16:13;7.87;;;5.90;;
7901;SDS011;3996;49.674;10.716;2024-01-07T07:18:38;10.13;;;7.23;;
7901;SDS011;3996;49.674;10.716;2024-01-07T07:21:04;9.23;;;6.17;;
7901;SDS011;3996;49.674;10.716;2024-01-07T07:23:30;10.07;;;6.97;;
7901;SDS011;3996;49.674;10.716;2024-01-07T07:25:56;10.10;;;7.33;;
7901;SDS011;3996;49.674;10.716;2024-01-07T07:28:21;9.23;;;6.57;;
7901;SDS011;3996;49.674;10.716;2024-01-07T07:30:47;11.13;;;7.23;;
7901;SDS011;3996;49.674;10.716;2024-01-07T07:33:12;9.90;;;7.03;;
7901;SDS011;3996;49.674;10.716;2024-01-07T07:35:38;12.77;;;7.77;;
7901;SDS011;3996;49.674;10.716;2024-01-07T07:38:06;11.57;;;6.90;;
7901;SDS011;3996;49.674;10.716;2024-01-07T07:40:32;13.50;;;9.00;;
7901;SDS011;3996;49.674;10.716;2024-01-07T07:42:58;14.83;;;9.13;;
7901;SDS011;3996;49.674;10.716;2024-01-07T07:45:23;10.20;;;7.00;;
7901;SDS011;3996;49.674;10.716;2024-01-07T07:47:49;9.83;;;6.37;;
7901;SDS011;3996;49.674;10.716;2024-01-07T07:50:14;7.83;;;5.87;;
7901;SDS011;3996;49.674;10.716;2024-01-07T07:52:43;16.50;;;9.73;;
7901;SDS011;3996;49.674;10.716;2024-01-07T07:55:09;11.10;;;7.60;;
7901;SDS011;3996;49.674;10.716;2024-01-07T07:57:35;9.63;;;6.83;;
7901;SDS011;3996;49.674;10.716;2024-01-07T08:00:03;8.00;;;6.43;;
7901;SDS011;3996;49.674;10.716;2024-01-07T08:02:30;8.20;;;5.77;;
7901;SDS011;3996;49.674;10.716;2024-01-07T08:04:55;7.90;;;5.43;;
7901;SDS011;3996;49.674;10.716;2024-01-07T08:07:21;8.40;;;6.03;;
7901;SDS011;3996;49.674;10.716;2024-01-07T08:09:46;8.80;;;6.10;;
7901;SDS011;3996;49.674;10.716;2024-01-07T08:12:12;7.60;;;5.73;;
7901;SDS011;3996;49.674;10.716;2024-01-07T08:14:38;7.97;;;5.50;;
7901;SDS011;3996;49.674;10.716;2024-01-07T08:17:06;8.33;;;6.07;;
7901;SDS011;3996;49.674;10.716;2024-01-07T08:19:35;8.20;;;5.90;;
7901;SDS011;3996;49.674;10.716;2024-01-07T08:22:01;7.87;;;5.57;;
7901;SDS011;3996;49.674;10.716;2024-01-07T08:24:26;8.83;;;6.10;;
7901;SDS011;3996;49.674;10.716;2024-01-07T08:26:52;8.13;;;6.60;;
7901;SDS011;3996;49.674;10.716;2024-01-07T08:29:18;9.33;;;6.90;;
7901;SDS011;3996;49.674;10.716;2024-01-07T08:31:43;7.30;;;5.70;;
7901;SDS011;3996;49.674;10.716;2024-01-07T08:34:09;8.70;;;6.50;;
7901;SDS011;3996;49.674;10.716;2024-01-07T08:36:34;8.83;;;5.83;;
7901;SDS011;3996;49.674;10.716;2024-01-07T08:39:00;8.40;;;5.97;;
7901;SDS011;3996;49.674;10.716;2024-01-07T08:41:26;8.00;;;6.07;;
7901;SDS011;3996;49.674;10.716;2024-01-07T08:43:51;8.30;;;6.43;;
7901;SDS011;3996;49.674;10.716;2024-01-07T08:46:20;8.07;;;6.10;;
7901;SDS011;3996;49.674;10.716;2024-01-07T08:48:46;9.20;;;6.43;;
7901;SDS011;3996;49.674;10.716;2024-01-07T08:51:12;11.13;;;6.47;;
7901;SDS011;3996;49.674;10.716;2024-01-07T08:53:38;10.67;;;7.10;;
7901;SDS011;3996;49.674;10.716;2024-01-07T08:56:04;8.73;;;6.07;;
7901;SDS011;3996;49.674;10.716;2024-01-07T08:58:31;9.37;;;6.90;;
7901;SDS011;3996;49.674;10.716;2024-01-07T09:00:57;9.47;;;6.70;;
7901;SDS011;3996;49.674;10.716;2024-01-07T09:03:22;10.80;;;6.77;;
7901;SDS011;3996;49.674;10.716;2024-01-07T09:05:48;10.23;;;6.77;;
7901;SDS011;3996;49.674;10.716;2024-01-07T09:08:14;9.27;;;7.07;;
7901;SDS011;3996;49.674;10.716;2024-01-07T09:10:39;9.47;;;7.10;;
7901;SDS011;3996;49.674;10.716;2024-01-07T09:13:05;9.60;;;7.20;;
7901;SDS011;3996;49.674;10.716;2024-01-07T09:15:31;10.77;;;7.43;;
7901;SDS011;3996;49.674;10.716;2024-01-07T09:17:56;9.23;;;6.83;;
7901;SDS011;3996;49.674;10.716;2024-01-07T09:20:22;9.63;;;7.60;;
7901;SDS011;3996;49.674;10.716;2024-01-07T09:22:48;10.47;;;7.30;;
7901;SDS011;3996;49.674;10.716;2024-01-07T09:25:13;11.83;;;7.70;;
7901;SDS011;3996;49.674;10.716;2024-01-07T09:27:39;12.03;;;7.37;;
7901;SDS011;3996;49.674;10.716;2024-01-07T09:30:05;11.77;;;8.27;;
7901;SDS011;3996;49.674;10.716;2024-01-07T09:32:31;13.73;;;8.63;;
7901;SDS011;3996;49.674;10.716;2024-01-07T09:34:57;14.33;;;9.23;;
7901;SDS011;3996;49.674;10.716;2024-01-07T09:37:23;11.80;;;8.53;;
7901;SDS011;3996;49.674;10.716;2024-01-07T09:39:48;11.90;;;8.37;;
7901;SDS011;3996;49.674;10.716;2024-01-07T09:42:19;12.00;;;8.00;;
7901;SDS011;3996;49.674;10.716;2024-01-07T09:44:44;11.27;;;8.17;;
7901;SDS011;3996;49.674;10.716;2024-01-07T09:47:11;11.50;;;8.40;;
7901;SDS011;3996;49.674;10.716;2024-01-07T09:49:38;10.90;;;8.40;;
7901;SDS011;3996;49.674;10.716;2024-01-07T09:52:05;12.47;;;8.47;;
7901;SDS011;3996;49.674;10.716;2024-01-07T09:54:32;11.13;;;8.10;;
7901;SDS011;3996;49.674;10.716;2024-01-07T09:57:01;12.63;;;9.10;;
7901;SDS011;3996;49.674;10.716;2024-01-07T09:59:30;12.67;;;8.57;;
7901;SDS011;3996;49.674;10.716;2024-01-07T10:01:56;12.67;;;8.60;;
7901;SDS011;3996;49.674;10.716;2024-01-07T10:04:23;12.63;;;9.20;;
7901;SDS011;3996;49.674;10.716;2024-01-07T10:06:49;13.20;;;9.00;;
7901;SDS011;3996;49.674;10.716;2024-01-07T10:09:15;11.10;;;8.40;;
7901;SDS011;3996;49.674;10.716;2024-01-07T10:11:45;11.17;;;7.70;;
7901;SDS011;3996;49.674;10.716;2024-01-07T10:14:11;13.30;;;8.57;;
7901;SDS011;3996;49.674;10.716;2024-01-07T10:16:36;11.33;;;8.03;;
7901;SDS011;3996;49.674;10.716;2024-01-07T10:19:02;11.30;;;8.30;;
7901;SDS011;3996;49.674;10.716;2024-01-07T10:21:28;11.67;;;8.67;;
7901;SDS011;3996;49.674;10.716;2024-01-07T10:24:12;11.17;;;7.93;;
7901;SDS011;3996;49.674;10.716;2024-01-07T10:26:38;11.70;;;8.63;;
7901;SDS011;3996;49.674;10.716;2024-01-07T10:29:05;15.40;;;10.67;;
7901;SDS011;3996;49.674;10.716;2024-01-07T10:31:32;13.03;;;8.77;;
7901;SDS011;3996;49.674;10.716;2024-01-07T10:33:57;13.07;;;8.87;;
7901;SDS011;3996;49.674;10.716;2024-01-07T10:36:26;14.13;;;9.30;;
7901;SDS011;3996;49.674;10.716;2024-01-07T10:38:52;13.27;;;9.47;;
7901;SDS011;3996;49.674;10.716;2024-01-07T10:41:20;16.20;;;10.50;;
7901;SDS011;3996;49.674;10.716;2024-01-07T10:43:47;18.70;;;10.97;;
7901;SDS011;3996;49.674;10.716;2024-01-07T10:46:13;12.10;;;8.37;;
7901;SDS011;3996;49.674;10.716;2024-01-07T10:49:18;10.77;;;8.17;;
7901;SDS011;3996;49.674;10.716;2024-01-07T10:51:44;13.87;;;8.50;;
7901;SDS011;3996;49.674;10.716;2024-01-07T10:54:10;15.23;;;9.37;;
7901;SDS011;3996;49.674;10.716;2024-01-07T10:56:45;14.20;;;9.43;;
7901;SDS011;3996;49.674;10.716;2024-01-07T10:59:13;13.23;;;8.77;;
7901;SDS011;3996;49.674;10.716;2024-01-07T11:01:40;12.43;;;8.20;;
7901;SDS011;3996;49.674;10.716;2024-01-07T11:04:17;12.40;;;7.73;;
7901;SDS011;3996;49.674;10.716;2024-01-07T11:09:51;13.63;;;8.50;;
7901;SDS011;3996;49.674;10.716;2024-01-07T11:12:25;11.43;;;7.63;;
7901;SDS011;3996;49.674;10.716;2024-01-07T11:14:51;12.00;;;8.17;;
7901;SDS011;3996;49.674;10.716;2024-01-07T11:20:05;12.93;;;8.20;;
7901;SDS011;3996;49.674;10.716;2024-01-07T11:22:33;12.00;;;7.67;;
7901;SDS011;3996;49.674;10.716;2024-01-07T11:25:01;11.60;;;7.67;;
7901;SDS011;3996;49.674;10.716;2024-01-07T11:27:30;13.53;;;7.90;;
7901;SDS011;3996;49.674;10.716;2024-01-07T11:29:57;12.87;;;8.17;;
7901;SDS011;3996;49.674;10.716;2024-01-07T11:32:28;12.23;;;8.20;;
7901;SDS011;3996;49.674;10.716;2024-01-07T11:34:54;11.00;;;7.47;;
7901;SDS011;3996;49.674;10.716;2024-01-07T11:37:21;11.20;;;6.83;;
7901;SDS011;3996;49.674;10.716;2024-01-07T11:39:48;10.13;;;6.77;;
7901;SDS011;3996;49.674;10.716;2024-01-07T11:42:16;11.87;;;7.33;;
7901;SDS011;3996;49.674;10.716;2024-01-07T11:44:46;12.33;;;7.50;;
7901;SDS011;3996;49.674;10.716;2024-01-07T11:47:13;11.40;;;6.97;;
7901;SDS011;3996;49.674;10.716;2024-01-07T11:49:39;11.70;;;7.20;;
7901;SDS011;3996;49.674;10.716;2024-01-07T11:52:05;9.57;;;6.90;;
7901;SDS011;3996;49.674;10.716;2024-01-07T11:54:31;11.57;;;7.33;;
7901;SDS011;3996;49.674;10.716;2024-01-07T11:56:57;11.57;;;7.20;;
7901;SDS011;3996;49.674;10.716;2024-01-07T11:59:23;12.73;;;7.03;;
7901;SDS011;3996;49.674;10.716;2024-01-07T12:01:48;9.20;;;6.37;;
7901;SDS011;3996;49.674;10.716;2024-01-07T12:04:14;11.03;;;7.10;;
7901;SDS011;3996;49.674;10.716;2024-01-07T12:06:40;10.10;;;7.23;;
7901;SDS011;3996;49.674;10.716;2024-01-07T12:09:05;11.47;;;7.07;;
7901;SDS011;3996;49.674;10.716;2024-01-07T12:11:31;9.40;;;6.90;;
7901;SDS011;3996;49.674;10.716;2024-01-07T12:13:57;11.00;;;7.03;;
7901;SDS011;3996;49.674;10.716;2024-01-07T12:16:24;9.13;;;6.07;;
7901;SDS011;3996;49.674;10.716;2024-01-07T12:18:50;10.87;;;6.50;;
7901;SDS011;3996;49.674;10.716;2024-01-07T12:21:19;8.53;;;5.50;;
7901;SDS011;3996;49.674;10.716;2024-01-07T12:23:48;8.57;;;5.93;;
7901;SDS011;3996;49.674;10.716;2024-01-07T12:26:19;9.77;;;6.23;;
7901;SDS011;3996;49.674;10.716;2024-01-07T12:28:51;7.30;;;5.27;;
7901;SDS011;3996;49.674;10.716;2024-01-07T12:31:19;8.27;;;5.27;;
7901;SDS011;3996;49.674;10.716;2024-01-07T12:33:44;6.17;;;4.60;;
7901;SDS011;3996;49.674;10.716;2024-01-07T12:36:11;9.50;;;5.63;;
7901;SDS011;3996;49.674;10.716;2024-01-07T12:38:39;8.03;;;5.17;;
7901;SDS011;3996;49.674;10.716;2024-01-07T12:41:06;7.97;;;5.23;;
7901;SDS011;3996;49.674;10.716;2024-01-07T12:43:31;7.43;;;5.07;;
7901;SDS011;3996;49.674;10.716;2024-01-07T12:45:57;6.63;;;4.83;;
7901;SDS011;3996;49.674;10.716;2024-01-07T12:48:29;7.80;;;4.73;;
7901;SDS011;3996;49.674;10.716;2024-01-07T12:50:55;5.83;;;4.80;;
7901;SDS011;3996;49.674;10.716;2024-01-07T12:53:21;7.53;;;5.40;;
7901;SDS011;3996;49.674;10.716;2024-01-07T12:55:47;6.47;;;5.17;;
7901;SDS011;3996;49.674;10.716;2024-01-07T12:58:13;6.90;;;5.13;;
7901;SDS011;3996;49.674;10.716;2024-01-07T13:00:38;5.73;;;4.40;;
7901;SDS011;3996;49.674;10.716;2024-01-07T13:03:05;5.90;;;4.50;;
7901;SDS011;3996;49.674;10.716;2024-01-07T13:05:32;6.07;;;3.90;;
7901;SDS011;3996;49.674;10.716;2024-01-07T13:07:58;6.33;;;4.07;;
7901;SDS011;3996;49.674;10.716;2024-01-07T13:10:24;6.70;;;4.03;;
7901;SDS011;3996;49.674;10.716;2024-01-07T13:12:50;7.47;;;4.20;;
7901;SDS011;3996;49.674;10.716;2024-01-07T13:15:15;6.57;;;4.50;;
7901;SDS011;3996;49.674;10.716;2024-01-07T13:17:50;6.67;;;4.30;;
7901;SDS011;3996;49.674;10.716;2024-01-07T13:20:16;5.53;;;4.80;;
7901;SDS011;3996;49.674;10.716;2024-01-07T13:22:44;6.30;;;3.90;;
7901;SDS011;3996;49.674;10.716;2024-01-07T13:25:11;5.87;;;4.07;;
7901;SDS011;3996;49.674;10.716;2024-01-07T13:27:37;5.77;;;3.87;;
7901;SDS011;3996;49.674;10.716;2024-01-07T13:30:03;6.03;;;3.30;;
7901;SDS011;3996;49.674;10.716;2024-01-07T13:32:29;5.43;;;3.20;;
7901;SDS011;3996;49.674;10.716;2024-01-07T13:34:55;5.57;;;3.47;;
7901;SDS011;3996;49.674;10.716;2024-01-07T13:37:20;3.43;;;2.77;;
7901;SDS011;3996;49.674;10.716;2024-01-07T13:39:46;4.23;;;2.90;;
7901;SDS011;3996;49.674;10.716;2024-01-07T13:42:14;4.40;;;2.90;;
7901;SDS011;3996;49.674;10.716;2024-01-07T13:44:39;4.00;;;3.30;;
7901;SDS011;3996;49.674;10.716;2024-01-07T13:47:11;4.20;;;3.20;;
7901;SDS011;3996;49.674;10.716;2024-01-07T13:49:38;6.37;;;3.20;;
7901;SDS011;3996;49.674;10.716;2024-01-07T13:52:05;4.10;;;3.03;;
7901;SDS011;3996;49.674;10.716;2024-01-07T13:54:30;3.70;;;3.07;;
7901;SDS011;3996;49.674;10.716;2024-01-07T13:56:56;4.23;;;3.17;;
7901;SDS011;3996;49.674;10.716;2024-01-07T13:59:21;4.13;;;2.97;;
7901;SDS011;3996;49.674;10.716;2024-01-07T14:01:48;4.00;;;3.10;;
7901;SDS011;3996;49.674;10.716;2024-01-07T14:04:14;4.50;;;3.40;;
7901;SDS011;3996;49.674;10.716;2024-01-07T14:06:40;5.10;;;3.50;;
7901;SDS011;3996;49.674;10.716;2024-01-07T14:09:05;4.70;;;3.83;;
7901;SDS011;3996;49.674;10.716;2024-01-07T14:11:33;4.20;;;3.47;;
7901;SDS011;3996;49.674;10.716;2024-01-07T14:13:59;4.00;;;3.60;;
7901;SDS011;3996;49.674;10.716;2024-01-07T14:16:26;4.60;;;3.80;;
7901;SDS011;3996;49.674;10.716;2024-01-07T14:18:51;4.10;;;3.70;;
7901;SDS011;3996;49.674;10.716;2024-01-07T14:21:17;4.50;;;3.80;;
7901;SDS011;3996;49.674;10.716;2024-01-07T14:23:42;4.10;;;3.70;;
7901;SDS011;3996;49.674;10.716;2024-01-07T14:26:08;5.03;;;4.33;;
7901;SDS011;3996;49.674;10.716;2024-01-07T14:28:34;5.40;;;4.03;;
7901;SDS011;3996;49.674;10.716;2024-01-07T14:31:00;4.83;;;3.97;;
7901;SDS011;3996;49.674;10.716;2024-01-07T14:33:26;4.37;;;3.90;;
7901;SDS011;3996;49.674;10.716;2024-01-07T14:35:52;4.90;;;4.13;;
7901;SDS011;3996;49.674;10.716;2024-01-07T14:38:17;5.87;;;3.80;;
7901;SDS011;3996;49.674;10.716;2024-01-07T14:40:44;4.43;;;3.77;;
7901;SDS011;3996;49.674;10.716;2024-01-07T14:43:11;5.53;;;3.97;;
7901;SDS011;3996;49.674;10.716;2024-01-07T14:45:37;4.63;;;3.83;;
7901;SDS011;3996;49.674;10.716;2024-01-07T14:48:03;8.70;;;5.43;;
7901;SDS011;3996;49.674;10.716;2024-01-07T14:50:29;7.47;;;4.40;;
7901;SDS011;3996;49.674;10.716;2024-01-07T14:52:55;7.20;;;3.80;;
7901;SDS011;3996;49.674;10.716;2024-01-07T14:55:20;5.90;;;3.70;;